Startpagina
METAR-TAF:

METAR-TAF

Vliegvelden :

Gibraltar, Gibraltar

Gibraltar Airport

breedte: 36-09N, lengte: 005-21W, hoogte: 5 m

Actueel weer

Dit bericht is 26 minuten geleden gemaakt, om 14:50 UTC
Wind 10 kt uit het oostnoordoosten
Temperatuur 23°C
Vochtigheid 73%
Druk 1017 hPa
Zicht 10 km of meer
Weinig wolken op 1000 ft

METAR: LXGB 221450Z 07010KT 9999 FEW010 23/18 Q1017 NOSIG

Tijdstip: 17:16 (15:16 UTC)

Verwachting

Dit bericht is 1 uur en het 40 minuten geleden gemaakt, om 13:36 UTC
Verwachting geldig van 22 om 15 UTC tot 22 om 22 UTC
Wind 12 kt uit het oosten
Zicht 10 km of meer
Weinig wolken op 1000 ft
Kans 30% :
Tijdelijke
van 22 om 19 UTC tot 22 om 22 UTC
Zicht: 7000 m
Verspreide wolken op 1000 ft
Heiigheid

TAF: LXGB 221336Z 2215/2222 09012KT 9999 FEW010 PROB30 TEMPO 2219/2222 7000 HZ SCT010

Waarnemingen en weersverwachtingen van meer dan 4000 vliegvelden (METAR en TAF).

De beschikbare stations zijn de gele en rode punten op de kaart.

Ga met uw muis naar het station om de naam te zien.

Klik dan om waarnemingen en weersverwachtingen te zien.

kaart wijzigen: klik op de groene knoppen met een zwart kruis om in te zoomen, op de groene knop met een streepje om uit te zoomen of op de groene pijlen voor aangrenzende kaarten.


METAR-TAF: